sensor_id;sensor_type;location;lat;lon;timestamp;P1;durP1;ratioP1;P2;durP2;ratioP2
37791;SDS011;29527;55.766;37.570;2023-08-12T00:00:27;12.38;;;11.07;;
37791;SDS011;29527;55.766;37.570;2023-08-12T00:02:53;12.48;;;11.18;;
37791;SDS011;29527;55.766;37.570;2023-08-12T00:05:18;16.05;;;11.43;;
37791;SDS011;29527;55.766;37.570;2023-08-12T00:07:44;12.80;;;11.25;;
37791;SDS011;29527;55.766;37.570;2023-08-12T00:10:10;14.90;;;11.85;;
37791;SDS011;29527;55.766;37.570;2023-08-12T00:12:36;12.77;;;11.27;;
37791;SDS011;29527;55.766;37.570;2023-08-12T00:15:03;12.50;;;10.65;;
37791;SDS011;29527;55.766;37.570;2023-08-12T00:17:32;14.93;;;11.25;;
37791;SDS011;29527;55.766;37.570;2023-08-12T00:19:58;13.20;;;11.35;;
37791;SDS011;29527;55.766;37.570;2023-08-12T00:22:24;14.27;;;11.90;;
37791;SDS011;29527;55.766;37.570;2023-08-12T00:24:49;13.32;;;11.23;;
37791;SDS011;29527;55.766;37.570;2023-08-12T00:27:15;14.70;;;11.13;;
37791;SDS011;29527;55.766;37.570;2023-08-12T00:29:40;12.90;;;11.50;;
37791;SDS011;29527;55.766;37.570;2023-08-12T00:32:07;13.52;;;12.10;;
37791;SDS011;29527;55.766;37.570;2023-08-12T00:34:33;14.45;;;11.30;;
37791;SDS011;29527;55.766;37.570;2023-08-12T00:36:59;12.98;;;11.10;;
37791;SDS011;29527;55.766;37.570;2023-08-12T00:39:24;11.95;;;10.80;;
37791;SDS011;29527;55.766;37.570;2023-08-12T00:41:50;13.00;;;10.80;;
37791;SDS011;29527;55.766;37.570;2023-08-12T00:44:15;15.15;;;11.15;;
37791;SDS011;29527;55.766;37.570;2023-08-12T00:46:41;19.33;;;11.35;;
37791;SDS011;29527;55.766;37.570;2023-08-12T00:49:07;14.77;;;11.35;;
37791;SDS011;29527;55.766;37.570;2023-08-12T00:51:34;12.45;;;10.75;;
37791;SDS011;29527;55.766;37.570;2023-08-12T00:54:01;13.38;;;11.43;;
37791;SDS011;29527;55.766;37.570;2023-08-12T00:56:29;14.25;;;11.25;;
37791;SDS011;29527;55.766;37.570;2023-08-12T00:58:56;12.77;;;11.48;;
37791;SDS011;29527;55.766;37.570;2023-08-12T01:01:25;18.05;;;10.95;;
37791;SDS011;29527;55.766;37.570;2023-08-12T01:03:51;12.88;;;11.45;;
37791;SDS011;29527;55.766;37.570;2023-08-12T01:06:17;14.85;;;11.27;;
37791;SDS011;29527;55.766;37.570;2023-08-12T01:08:42;14.05;;;10.88;;
37791;SDS011;29527;55.766;37.570;2023-08-12T01:14:00;13.95;;;10.68;;
37791;SDS011;29527;55.766;37.570;2023-08-12T01:16:41;12.63;;;11.32;;
37791;SDS011;29527;55.766;37.570;2023-08-12T01:19:10;17.00;;;11.45;;
37791;SDS011;29527;55.766;37.570;2023-08-12T01:21:46;13.13;;;10.68;;
37791;SDS011;29527;55.766;37.570;2023-08-12T01:24:14;14.35;;;11.55;;
37791;SDS011;29527;55.766;37.570;2023-08-12T01:26:40;12.93;;;10.65;;
37791;SDS011;29527;55.766;37.570;2023-08-12T01:29:05;13.38;;;11.70;;
37791;SDS011;29527;55.766;37.570;2023-08-12T01:31:37;16.38;;;11.45;;
37791;SDS011;29527;55.766;37.570;2023-08-12T01:36:43;14.80;;;10.95;;
37791;SDS011;29527;55.766;37.570;2023-08-12T01:39:16;14.57;;;11.38;;
37791;SDS011;29527;55.766;37.570;2023-08-12T01:41:44;14.63;;;11.55;;
37791;SDS011;29527;55.766;37.570;2023-08-12T01:44:10;13.27;;;11.30;;
37791;SDS011;29527;55.766;37.570;2023-08-12T01:46:36;13.23;;;11.15;;
37791;SDS011;29527;55.766;37.570;2023-08-12T01:49:01;19.52;;;11.15;;
37791;SDS011;29527;55.766;37.570;2023-08-12T01:51:28;13.30;;;11.52;;
37791;SDS011;29527;55.766;37.570;2023-08-12T01:53:54;11.73;;;10.13;;
37791;SDS011;29527;55.766;37.570;2023-08-12T01:56:20;12.45;;;10.63;;
37791;SDS011;29527;55.766;37.570;2023-08-12T01:58:45;15.75;;;11.55;;
37791;SDS011;29527;55.766;37.570;2023-08-12T02:01:11;13.10;;;10.27;;
37791;SDS011;29527;55.766;37.570;2023-08-12T02:03:36;18.50;;;11.30;;
37791;SDS011;29527;55.766;37.570;2023-08-12T02:06:02;16.13;;;11.43;;
37791;SDS011;29527;55.766;37.570;2023-08-12T02:08:27;15.50;;;11.70;;
37791;SDS011;29527;55.766;37.570;2023-08-12T02:10:53;14.02;;;11.77;;
37791;SDS011;29527;55.766;37.570;2023-08-12T02:13:19;14.70;;;11.65;;
37791;SDS011;29527;55.766;37.570;2023-08-12T02:15:44;17.15;;;11.55;;
37791;SDS011;29527;55.766;37.570;2023-08-12T02:18:10;14.57;;;12.20;;
37791;SDS011;29527;55.766;37.570;2023-08-12T02:20:35;15.25;;;11.45;;
37791;SDS011;29527;55.766;37.570;2023-08-12T02:23:01;15.65;;;12.07;;
37791;SDS011;29527;55.766;37.570;2023-08-12T02:25:26;16.17;;;11.45;;
37791;SDS011;29527;55.766;37.570;2023-08-12T02:27:52;13.13;;;11.68;;
37791;SDS011;29527;55.766;37.570;2023-08-12T02:30:17;15.13;;;11.77;;
37791;SDS011;29527;55.766;37.570;2023-08-12T02:32:43;16.70;;;12.43;;
37791;SDS011;29527;55.766;37.570;2023-08-12T02:35:09;15.63;;;12.48;;
37791;SDS011;29527;55.766;37.570;2023-08-12T02:37:35;15.25;;;12.60;;
37791;SDS011;29527;55.766;37.570;2023-08-12T02:40:01;16.23;;;12.07;;
37791;SDS011;29527;55.766;37.570;2023-08-12T02:42:30;16.45;;;11.95;;
37791;SDS011;29527;55.766;37.570;2023-08-12T02:44:55;16.92;;;11.40;;
37791;SDS011;29527;55.766;37.570;2023-08-12T02:47:21;12.77;;;11.52;;
37791;SDS011;29527;55.766;37.570;2023-08-12T02:49:47;12.50;;;11.05;;
37791;SDS011;29527;55.766;37.570;2023-08-12T02:52:12;14.63;;;11.82;;
37791;SDS011;29527;55.766;37.570;2023-08-12T02:54:38;13.93;;;11.98;;
37791;SDS011;29527;55.766;37.570;2023-08-12T02:57:03;14.65;;;12.23;;
37791;SDS011;29527;55.766;37.570;2023-08-12T02:59:29;14.20;;;11.70;;
37791;SDS011;29527;55.766;37.570;2023-08-12T03:01:55;14.55;;;11.63;;
37791;SDS011;29527;55.766;37.570;2023-08-12T03:04:20;15.90;;;12.02;;
37791;SDS011;29527;55.766;37.570;2023-08-12T03:06:47;15.85;;;11.68;;
37791;SDS011;29527;55.766;37.570;2023-08-12T03:09:13;13.63;;;12.05;;
37791;SDS011;29527;55.766;37.570;2023-08-12T03:11:39;15.88;;;11.40;;
37791;SDS011;29527;55.766;37.570;2023-08-12T03:14:04;14.57;;;11.32;;
37791;SDS011;29527;55.766;37.570;2023-08-12T03:16:30;14.30;;;11.35;;
37791;SDS011;29527;55.766;37.570;2023-08-12T03:18:55;17.20;;;11.68;;
37791;SDS011;29527;55.766;37.570;2023-08-12T03:21:21;12.90;;;10.82;;
37791;SDS011;29527;55.766;37.570;2023-08-12T03:23:47;16.63;;;11.75;;
37791;SDS011;29527;55.766;37.570;2023-08-12T03:26:12;14.50;;;11.65;;
37791;SDS011;29527;55.766;37.570;2023-08-12T03:28:39;14.30;;;11.60;;
37791;SDS011;29527;55.766;37.570;2023-08-12T03:31:04;13.77;;;11.68;;
37791;SDS011;29527;55.766;37.570;2023-08-12T03:33:30;13.98;;;11.05;;
37791;SDS011;29527;55.766;37.570;2023-08-12T03:35:57;14.75;;;11.68;;
37791;SDS011;29527;55.766;37.570;2023-08-12T03:38:23;15.05;;;10.98;;
37791;SDS011;29527;55.766;37.570;2023-08-12T03:40:48;16.52;;;11.40;;
37791;SDS011;29527;55.766;37.570;2023-08-12T03:43:15;14.55;;;11.55;;
37791;SDS011;29527;55.766;37.570;2023-08-12T03:45:43;13.70;;;11.43;;
37791;SDS011;29527;55.766;37.570;2023-08-12T03:48:09;15.50;;;10.98;;
37791;SDS011;29527;55.766;37.570;2023-08-12T03:50:36;15.05;;;11.77;;
37791;SDS011;29527;55.766;37.570;2023-08-12T03:53:02;16.75;;;12.10;;
37791;SDS011;29527;55.766;37.570;2023-08-12T03:55:31;14.95;;;11.15;;
37791;SDS011;29527;55.766;37.570;2023-08-12T03:57:58;15.88;;;12.55;;
37791;SDS011;29527;55.766;37.570;2023-08-12T04:00:24;16.27;;;12.05;;
37791;SDS011;29527;55.766;37.570;2023-08-12T04:02:49;15.00;;;11.52;;
37791;SDS011;29527;55.766;37.570;2023-08-12T04:05:15;16.77;;;11.90;;
37791;SDS011;29527;55.766;37.570;2023-08-12T04:07:40;16.27;;;11.75;;
37791;SDS011;29527;55.766;37.570;2023-08-12T04:10:06;17.15;;;12.13;;
37791;SDS011;29527;55.766;37.570;2023-08-12T04:12:32;12.75;;;11.55;;
37791;SDS011;29527;55.766;37.570;2023-08-12T04:14:57;14.63;;;11.70;;
37791;SDS011;29527;55.766;37.570;2023-08-12T04:17:23;15.23;;;12.15;;
37791;SDS011;29527;55.766;37.570;2023-08-12T04:19:48;13.45;;;11.93;;
37791;SDS011;29527;55.766;37.570;2023-08-12T04:22:14;16.95;;;11.85;;
37791;SDS011;29527;55.766;37.570;2023-08-12T04:24:42;14.00;;;10.73;;
37791;SDS011;29527;55.766;37.570;2023-08-12T04:27:07;12.25;;;10.55;;
37791;SDS011;29527;55.766;37.570;2023-08-12T04:29:33;16.05;;;10.60;;
37791;SDS011;29527;55.766;37.570;2023-08-12T04:31:58;14.02;;;10.75;;
37791;SDS011;29527;55.766;37.570;2023-08-12T04:34:23;12.32;;;10.50;;
37791;SDS011;29527;55.766;37.570;2023-08-12T04:36:49;14.60;;;10.30;;
37791;SDS011;29527;55.766;37.570;2023-08-12T04:39:14;13.13;;;10.25;;
37791;SDS011;29527;55.766;37.570;2023-08-12T04:41:40;12.60;;;10.77;;
37791;SDS011;29527;55.766;37.570;2023-08-12T04:44:06;11.45;;;10.23;;
37791;SDS011;29527;55.766;37.570;2023-08-12T04:46:31;12.95;;;9.98;;
37791;SDS011;29527;55.766;37.570;2023-08-12T04:48:57;12.23;;;10.60;;
37791;SDS011;29527;55.766;37.570;2023-08-12T04:51:23;18.92;;;11.20;;
37791;SDS011;29527;55.766;37.570;2023-08-12T04:53:48;17.40;;;9.98;;
37791;SDS011;29527;55.766;37.570;2023-08-12T04:56:14;13.45;;;10.50;;
37791;SDS011;29527;55.766;37.570;2023-08-12T04:58:39;11.50;;;10.25;;
37791;SDS011;29527;55.766;37.570;2023-08-12T05:01:05;22.50;;;10.63;;
37791;SDS011;29527;55.766;37.570;2023-08-12T05:03:30;13.02;;;9.70;;
37791;SDS011;29527;55.766;37.570;2023-08-12T05:05:56;12.95;;;10.50;;
37791;SDS011;29527;55.766;37.570;2023-08-12T05:08:22;12.73;;;10.65;;
37791;SDS011;29527;55.766;37.570;2023-08-12T05:10:47;12.95;;;10.57;;
37791;SDS011;29527;55.766;37.570;2023-08-12T05:13:14;15.85;;;9.63;;
37791;SDS011;29527;55.766;37.570;2023-08-12T05:15:40;13.35;;;9.63;;
37791;SDS011;29527;55.766;37.570;2023-08-12T05:18:06;10.55;;;9.38;;
37791;SDS011;29527;55.766;37.570;2023-08-12T05:20:31;11.95;;;10.02;;
37791;SDS011;29527;55.766;37.570;2023-08-12T05:22:57;11.70;;;9.63;;
37791;SDS011;29527;55.766;37.570;2023-08-12T05:25:23;13.40;;;9.50;;
37791;SDS011;29527;55.766;37.570;2023-08-12T05:27:49;11.07;;;9.82;;
37791;SDS011;29527;55.766;37.570;2023-08-12T05:30:14;14.75;;;9.60;;
37791;SDS011;29527;55.766;37.570;2023-08-12T05:32:40;12.00;;;9.80;;
37791;SDS011;29527;55.766;37.570;2023-08-12T05:35:06;14.77;;;10.48;;
37791;SDS011;29527;55.766;37.570;2023-08-12T05:37:31;19.10;;;9.85;;
37791;SDS011;29527;55.766;37.570;2023-08-12T05:39:57;14.95;;;9.98;;
37791;SDS011;29527;55.766;37.570;2023-08-12T05:42:22;14.73;;;10.13;;
37791;SDS011;29527;55.766;37.570;2023-08-12T05:44:48;16.23;;;10.07;;
37791;SDS011;29527;55.766;37.570;2023-08-12T05:47:13;13.55;;;10.63;;
37791;SDS011;29527;55.766;37.570;2023-08-12T05:49:39;11.50;;;10.23;;
37791;SDS011;29527;55.766;37.570;2023-08-12T05:52:04;14.27;;;9.90;;
37791;SDS011;29527;55.766;37.570;2023-08-12T05:54:30;16.33;;;10.10;;
37791;SDS011;29527;55.766;37.570;2023-08-12T05:56:55;12.50;;;10.35;;
37791;SDS011;29527;55.766;37.570;2023-08-12T05:59:21;12.70;;;10.13;;
37791;SDS011;29527;55.766;37.570;2023-08-12T06:01:46;14.68;;;10.30;;
37791;SDS011;29527;55.766;37.570;2023-08-12T06:04:12;11.38;;;10.25;;
37791;SDS011;29527;55.766;37.570;2023-08-12T06:06:37;14.25;;;10.32;;
37791;SDS011;29527;55.766;37.570;2023-08-12T06:09:03;11.43;;;10.27;;
37791;SDS011;29527;55.766;37.570;2023-08-12T06:11:29;16.95;;;10.30;;
37791;SDS011;29527;55.766;37.570;2023-08-12T06:13:54;10.30;;;9.30;;
37791;SDS011;29527;55.766;37.570;2023-08-12T06:16:20;12.30;;;9.57;;
37791;SDS011;29527;55.766;37.570;2023-08-12T06:18:45;13.20;;;9.75;;
37791;SDS011;29527;55.766;37.570;2023-08-12T06:21:11;10.70;;;9.70;;
37791;SDS011;29527;55.766;37.570;2023-08-12T06:23:36;12.95;;;9.75;;
37791;SDS011;29527;55.766;37.570;2023-08-12T06:26:01;14.23;;;9.05;;
37791;SDS011;29527;55.766;37.570;2023-08-12T06:28:27;11.95;;;9.35;;
37791;SDS011;29527;55.766;37.570;2023-08-12T06:30:53;13.00;;;8.95;;
37791;SDS011;29527;55.766;37.570;2023-08-12T06:33:18;12.80;;;8.93;;
37791;SDS011;29527;55.766;37.570;2023-08-12T06:35:44;12.80;;;9.60;;
37791;SDS011;29527;55.766;37.570;2023-08-12T06:38:09;12.45;;;9.00;;
37791;SDS011;29527;55.766;37.570;2023-08-12T06:40:35;15.40;;;9.45;;
37791;SDS011;29527;55.766;37.570;2023-08-12T06:43:01;12.45;;;9.32;;
37791;SDS011;29527;55.766;37.570;2023-08-12T06:45:27;13.70;;;9.13;;
37791;SDS011;29527;55.766;37.570;2023-08-12T06:47:53;13.98;;;9.25;;
37791;SDS011;29527;55.766;37.570;2023-08-12T06:50:18;11.43;;;8.85;;
37791;SDS011;29527;55.766;37.570;2023-08-12T06:52:44;13.13;;;9.30;;
37791;SDS011;29527;55.766;37.570;2023-08-12T06:55:09;12.85;;;8.80;;
37791;SDS011;29527;55.766;37.570;2023-08-12T06:57:35;11.38;;;8.18;;
37791;SDS011;29527;55.766;37.570;2023-08-12T07:00:00;11.55;;;7.90;;
37791;SDS011;29527;55.766;37.570;2023-08-12T07:02:30;14.32;;;8.85;;
37791;SDS011;29527;55.766;37.570;2023-08-12T07:04:56;17.73;;;9.13;;
37791;SDS011;29527;55.766;37.570;2023-08-12T07:07:22;14.43;;;8.50;;
37791;SDS011;29527;55.766;37.570;2023-08-12T07:09:47;17.75;;;9.32;;
37791;SDS011;29527;55.766;37.570;2023-08-12T07:12:13;9.73;;;8.18;;
37791;SDS011;29527;55.766;37.570;2023-08-12T07:14:38;18.23;;;9.38;;
37791;SDS011;29527;55.766;37.570;2023-08-12T07:17:04;13.68;;;8.55;;
37791;SDS011;29527;55.766;37.570;2023-08-12T07:19:29;13.80;;;8.20;;
37791;SDS011;29527;55.766;37.570;2023-08-12T07:21:55;12.68;;;8.73;;
37791;SDS011;29527;55.766;37.570;2023-08-12T07:24:20;12.50;;;9.52;;
37791;SDS011;29527;55.766;37.570;2023-08-12T07:26:46;12.10;;;9.45;;
37791;SDS011;29527;55.766;37.570;2023-08-12T07:29:11;13.68;;;9.13;;
37791;SDS011;29527;55.766;37.570;2023-08-12T07:31:37;15.07;;;9.18;;
37791;SDS011;29527;55.766;37.570;2023-08-12T07:34:02;14.63;;;9.48;;
37791;SDS011;29527;55.766;37.570;2023-08-12T07:36:28;13.63;;;9.02;;
37791;SDS011;29527;55.766;37.570;2023-08-12T07:38:53;13.68;;;8.90;;
37791;SDS011;29527;55.766;37.570;2023-08-12T07:41:19;11.40;;;9.38;;
37791;SDS011;29527;55.766;37.570;2023-08-12T07:43:45;10.65;;;9.30;;
37791;SDS011;29527;55.766;37.570;2023-08-12T07:46:10;17.88;;;10.23;;
37791;SDS011;29527;55.766;37.570;2023-08-12T07:48:36;13.18;;;9.32;;
37791;SDS011;29527;55.766;37.570;2023-08-12T07:51:03;16.25;;;9.27;;
37791;SDS011;29527;55.766;37.570;2023-08-12T07:53:29;11.88;;;9.15;;
37791;SDS011;29527;55.766;37.570;2023-08-12T07:55:54;15.77;;;9.35;;
37791;SDS011;29527;55.766;37.570;2023-08-12T07:58:20;11.10;;;9.90;;
37791;SDS011;29527;55.766;37.570;2023-08-12T08:00:45;12.82;;;9.52;;
37791;SDS011;29527;55.766;37.570;2023-08-12T08:03:11;12.57;;;9.25;;
37791;SDS011;29527;55.766;37.570;2023-08-12T08:05:39;14.88;;;9.52;;
37791;SDS011;29527;55.766;37.570;2023-08-12T08:08:06;14.40;;;10.23;;
37791;SDS011;29527;55.766;37.570;2023-08-12T08:10:32;12.35;;;9.25;;
37791;SDS011;29527;55.766;37.570;2023-08-12T08:12:57;15.50;;;9.93;;
37791;SDS011;29527;55.766;37.570;2023-08-12T08:15:23;16.35;;;9.77;;
37791;SDS011;29527;55.766;37.570;2023-08-12T08:17:48;14.85;;;10.35;;
37791;SDS011;29527;55.766;37.570;2023-08-12T08:20:14;15.20;;;8.98;;
37791;SDS011;29527;55.766;37.570;2023-08-12T08:22:39;12.77;;;10.27;;
37791;SDS011;29527;55.766;37.570;2023-08-12T08:25:05;14.25;;;10.38;;
37791;SDS011;29527;55.766;37.570;2023-08-12T08:27:31;14.35;;;10.00;;
37791;SDS011;29527;55.766;37.570;2023-08-12T08:29:57;14.88;;;10.60;;
37791;SDS011;29527;55.766;37.570;2023-08-12T08:32:24;15.55;;;10.90;;
37791;SDS011;29527;55.766;37.570;2023-08-12T08:34:50;20.33;;;11.95;;
37791;SDS011;29527;55.766;37.570;2023-08-12T08:37:15;16.02;;;11.00;;
37791;SDS011;29527;55.766;37.570;2023-08-12T08:39:41;18.10;;;10.07;;
37791;SDS011;29527;55.766;37.570;2023-08-12T08:42:06;13.20;;;11.27;;
37791;SDS011;29527;55.766;37.570;2023-08-12T08:44:35;18.48;;;11.50;;
37791;SDS011;29527;55.766;37.570;2023-08-12T08:47:03;13.77;;;11.15;;
37791;SDS011;29527;55.766;37.570;2023-08-12T08:49:31;13.60;;;10.85;;
37791;SDS011;29527;55.766;37.570;2023-08-12T08:51:58;16.83;;;11.80;;
37791;SDS011;29527;55.766;37.570;2023-08-12T08:54:24;23.27;;;10.70;;
37791;SDS011;29527;55.766;37.570;2023-08-12T08:56:50;15.75;;;11.95;;
37791;SDS011;29527;55.766;37.570;2023-08-12T08:59:16;12.45;;;10.88;;
37791;SDS011;29527;55.766;37.570;2023-08-12T09:01:42;13.68;;;10.55;;
37791;SDS011;29527;55.766;37.570;2023-08-12T09:04:11;15.60;;;10.95;;
37791;SDS011;29527;55.766;37.570;2023-08-12T09:06:38;15.35;;;11.15;;
37791;SDS011;29527;55.766;37.570;2023-08-12T09:09:06;16.10;;;11.50;;
37791;SDS011;29527;55.766;37.570;2023-08-12T09:11:35;15.40;;;10.30;;
37791;SDS011;29527;55.766;37.570;2023-08-12T09:14:03;14.98;;;10.70;;
37791;SDS011;29527;55.766;37.570;2023-08-12T09:16:29;18.10;;;11.18;;
37791;SDS011;29527;55.766;37.570;2023-08-12T09:18:55;11.70;;;10.52;;
37791;SDS011;29527;55.766;37.570;2023-08-12T09:21:21;15.80;;;10.80;;
37791;SDS011;29527;55.766;37.570;2023-08-12T09:23:46;16.55;;;11.10;;
37791;SDS011;29527;55.766;37.570;2023-08-12T09:26:13;13.18;;;10.57;;
37791;SDS011;29527;55.766;37.570;2023-08-12T09:28:43;12.70;;;10.88;;
37791;SDS011;29527;55.766;37.570;2023-08-12T09:31:26;15.40;;;11.23;;
37791;SDS011;29527;55.766;37.570;2023-08-12T09:33:54;13.45;;;11.38;;
37791;SDS011;29527;55.766;37.570;2023-08-12T09:36:23;16.55;;;11.02;;
37791;SDS011;29527;55.766;37.570;2023-08-12T09:38:49;18.08;;;12.27;;
37791;SDS011;29527;55.766;37.570;2023-08-12T09:41:15;17.05;;;11.45;;
37791;SDS011;29527;55.766;37.570;2023-08-12T09:43:44;16.00;;;11.70;;
37791;SDS011;29527;55.766;37.570;2023-08-12T09:46:13;19.83;;;11.38;;
37791;SDS011;29527;55.766;37.570;2023-08-12T09:48:39;14.20;;;11.18;;
37791;SDS011;29527;55.766;37.570;2023-08-12T09:51:05;18.88;;;11.57;;
37791;SDS011;29527;55.766;37.570;2023-08-12T09:53:32;14.68;;;10.77;;
37791;SDS011;29527;55.766;37.570;2023-08-12T09:55:59;12.02;;;10.90;;
37791;SDS011;29527;55.766;37.570;2023-08-12T09:58:33;13.02;;;11.57;;
37791;SDS011;29527;55.766;37.570;2023-08-12T10:01:02;14.13;;;11.15;;
37791;SDS011;29527;55.766;37.570;2023-08-12T10:03:30;13.43;;;11.20;;
37791;SDS011;29527;55.766;37.570;2023-08-12T10:05:58;14.80;;;11.57;;
37791;SDS011;29527;55.766;37.570;2023-08-12T10:08:25;15.80;;;11.48;;
37791;SDS011;29527;55.766;37.570;2023-08-12T10:10:53;16.60;;;11.95;;
37791;SDS011;29527;55.766;37.570;2023-08-12T10:13:19;16.67;;;11.90;;
37791;SDS011;29527;55.766;37.570;2023-08-12T10:15:46;15.30;;;12.10;;
37791;SDS011;29527;55.766;37.570;2023-08-12T10:18:12;15.48;;;11.98;;
37791;SDS011;29527;55.766;37.570;2023-08-12T10:20:40;15.23;;;12.43;;
37791;SDS011;29527;55.766;37.570;2023-08-12T10:23:05;18.42;;;13.25;;
37791;SDS011;29527;55.766;37.570;2023-08-12T10:25:32;13.38;;;12.07;;
37791;SDS011;29527;55.766;37.570;2023-08-12T10:28:00;17.17;;;13.15;;
37791;SDS011;29527;55.766;37.570;2023-08-12T10:30:29;18.50;;;13.38;;
37791;SDS011;29527;55.766;37.570;2023-08-12T10:32:55;16.00;;;12.88;;
37791;SDS011;29527;55.766;37.570;2023-08-12T10:35:21;17.67;;;12.70;;
37791;SDS011;29527;55.766;37.570;2023-08-12T10:37:49;17.13;;;14.45;;
37791;SDS011;29527;55.766;37.570;2023-08-12T10:40:19;18.95;;;13.13;;
37791;SDS011;29527;55.766;37.570;2023-08-12T10:42:47;16.48;;;13.43;;
37791;SDS011;29527;55.766;37.570;2023-08-12T10:45:13;18.60;;;13.35;;
37791;SDS011;29527;55.766;37.570;2023-08-12T10:50:16;15.18;;;13.43;;
37791;SDS011;29527;55.766;37.570;2023-08-12T10:52:46;17.85;;;13.65;;
37791;SDS011;29527;55.766;37.570;2023-08-12T10:57:46;16.65;;;13.65;;
37791;SDS011;29527;55.766;37.570;2023-08-12T11:00:18;19.35;;;14.18;;
37791;SDS011;29527;55.766;37.570;2023-08-12T11:02:52;17.58;;;14.18;;
37791;SDS011;29527;55.766;37.570;2023-08-12T11:05:19;15.65;;;13.98;;
37791;SDS011;29527;55.766;37.570;2023-08-12T11:10:16;15.98;;;14.38;;
37791;SDS011;29527;55.766;37.570;2023-08-12T11:15:17;19.77;;;14.77;;
37791;SDS011;29527;55.766;37.570;2023-08-12T11:17:45;18.55;;;15.65;;
37791;SDS011;29527;55.766;37.570;2023-08-12T11:20:12;18.95;;;14.43;;
37791;SDS011;29527;55.766;37.570;2023-08-12T11:22:42;20.55;;;15.15;;
37791;SDS011;29527;55.766;37.570;2023-08-12T11:25:09;19.52;;;15.43;;
37791;SDS011;29527;55.766;37.570;2023-08-12T11:27:46;20.63;;;14.65;;
37791;SDS011;29527;55.766;37.570;2023-08-12T11:30:16;18.77;;;16.02;;
37791;SDS011;29527;55.766;37.570;2023-08-12T11:32:44;16.90;;;15.10;;
37791;SDS011;29527;55.766;37.570;2023-08-12T11:35:12;21.85;;;16.58;;
37791;SDS011;29527;55.766;37.570;2023-08-12T11:37:39;20.92;;;15.35;;
37791;SDS011;29527;55.766;37.570;2023-08-12T11:40:06;16.92;;;12.98;;
37791;SDS011;29527;55.766;37.570;2023-08-12T11:42:35;17.77;;;13.95;;
37791;SDS011;29527;55.766;37.570;2023-08-12T11:45:02;17.52;;;14.15;;
37791;SDS011;29527;55.766;37.570;2023-08-12T11:47:31;16.85;;;13.63;;
37791;SDS011;29527;55.766;37.570;2023-08-12T11:49:56;18.80;;;14.70;;
37791;SDS011;29527;55.766;37.570;2023-08-12T11:52:22;18.10;;;14.10;;
37791;SDS011;29527;55.766;37.570;2023-08-12T11:54:49;17.02;;;14.93;;
37791;SDS011;29527;55.766;37.570;2023-08-12T11:57:15;20.27;;;14.13;;
37791;SDS011;29527;55.766;37.570;2023-08-12T11:59:42;18.35;;;14.75;;
37791;SDS011;29527;55.766;37.570;2023-08-12T12:02:07;15.65;;;13.43;;
37791;SDS011;29527;55.766;37.570;2023-08-12T12:04:33;21.92;;;13.63;;
37791;SDS011;29527;55.766;37.570;2023-08-12T12:06:59;18.20;;;14.88;;
37791;SDS011;29527;55.766;37.570;2023-08-12T12:09:31;18.15;;;14.15;;
37791;SDS011;29527;55.766;37.570;2023-08-12T12:11:57;15.68;;;13.85;;
37791;SDS011;29527;55.766;37.570;2023-08-12T12:14:24;19.10;;;14.45;;
37791;SDS011;29527;55.766;37.570;2023-08-12T12:16:49;19.15;;;13.63;;
37791;SDS011;29527;55.766;37.570;2023-08-12T12:21:44;16.95;;;13.63;;
37791;SDS011;29527;55.766;37.570;2023-08-12T12:24:12;21.63;;;14.85;;
37791;SDS011;29527;55.766;37.570;2023-08-12T12:26:38;22.65;;;14.65;;
37791;SDS011;29527;55.766;37.570;2023-08-12T12:29:04;19.80;;;15.50;;
37791;SDS011;29527;55.766;37.570;2023-08-12T12:31:33;20.42;;;14.90;;
37791;SDS011;29527;55.766;37.570;2023-08-12T12:34:01;19.70;;;14.38;;
37791;SDS011;29527;55.766;37.570;2023-08-12T12:36:28;16.60;;;12.82;;
37791;SDS011;29527;55.766;37.570;2023-08-12T12:38:53;21.42;;;13.55;;
37791;SDS011;29527;55.766;37.570;2023-08-12T12:41:19;17.52;;;13.00;;
37791;SDS011;29527;55.766;37.570;2023-08-12T12:43:44;16.20;;;12.25;;
37791;SDS011;29527;55.766;37.570;2023-08-12T12:46:10;14.68;;;12.38;;
37791;SDS011;29527;55.766;37.570;2023-08-12T12:48:35;17.30;;;13.13;;
37791;SDS011;29527;55.766;37.570;2023-08-12T12:51:01;15.98;;;13.52;;
37791;SDS011;29527;55.766;37.570;2023-08-12T12:53:27;19.17;;;13.25;;
37791;SDS011;29527;55.766;37.570;2023-08-12T12:55:52;18.90;;;13.25;;
37791;SDS011;29527;55.766;37.570;2023-08-12T12:58:18;19.23;;;13.75;;
37791;SDS011;29527;55.766;37.570;2023-08-12T13:00:43;16.48;;;13.85;;
37791;SDS011;29527;55.766;37.570;2023-08-12T13:03:09;18.80;;;13.55;;
37791;SDS011;29527;55.766;37.570;2023-08-12T13:05:34;20.30;;;13.57;;
37791;SDS011;29527;55.766;37.570;2023-08-12T13:08:00;17.08;;;12.48;;
37791;SDS011;29527;55.766;37.570;2023-08-12T13:10:25;16.90;;;11.85;;
37791;SDS011;29527;55.766;37.570;2023-08-12T13:12:51;13.98;;;11.13;;
37791;SDS011;29527;55.766;37.570;2023-08-12T13:15:16;15.48;;;11.75;;
37791;SDS011;29527;55.766;37.570;2023-08-12T13:17:42;17.02;;;11.20;;
37791;SDS011;29527;55.766;37.570;2023-08-12T13:20:07;12.85;;;11.30;;
37791;SDS011;29527;55.766;37.570;2023-08-12T13:22:34;13.00;;;11.63;;
37791;SDS011;29527;55.766;37.570;2023-08-12T13:25:00;18.23;;;12.65;;
37791;SDS011;29527;55.766;37.570;2023-08-12T13:27:26;19.13;;;12.48;;
37791;SDS011;29527;55.766;37.570;2023-08-12T13:29:51;15.02;;;12.85;;
37791;SDS011;29527;55.766;37.570;2023-08-12T13:32:17;13.77;;;12.20;;
37791;SDS011;29527;55.766;37.570;2023-08-12T13:34:42;17.20;;;12.57;;
37791;SDS011;29527;55.766;37.570;2023-08-12T13:37:12;16.73;;;12.65;;
37791;SDS011;29527;55.766;37.570;2023-08-12T13:39:38;16.10;;;13.07;;
37791;SDS011;29527;55.766;37.570;2023-08-12T13:42:04;16.40;;;13.52;;
37791;SDS011;29527;55.766;37.570;2023-08-12T13:44:29;14.57;;;12.23;;
37791;SDS011;29527;55.766;37.570;2023-08-12T13:46:55;16.30;;;12.57;;
37791;SDS011;29527;55.766;37.570;2023-08-12T13:49:20;16.17;;;12.50;;
37791;SDS011;29527;55.766;37.570;2023-08-12T13:51:46;15.57;;;12.93;;
37791;SDS011;29527;55.766;37.570;2023-08-12T13:54:11;17.55;;;13.45;;
37791;SDS011;29527;55.766;37.570;2023-08-12T13:56:37;18.90;;;13.15;;
37791;SDS011;29527;55.766;37.570;2023-08-12T13:59:02;17.75;;;13.45;;
37791;SDS011;29527;55.766;37.570;2023-08-12T14:01:28;15.18;;;13.23;;
37791;SDS011;29527;55.766;37.570;2023-08-12T14:03:53;16.48;;;13.60;;
37791;SDS011;29527;55.766;37.570;2023-08-12T14:06:19;18.40;;;13.95;;
37791;SDS011;29527;55.766;37.570;2023-08-12T14:08:44;17.90;;;13.75;;
37791;SDS011;29527;55.766;37.570;2023-08-12T14:11:10;20.70;;;14.50;;
37791;SDS011;29527;55.766;37.570;2023-08-12T14:13:35;18.80;;;14.18;;
37791;SDS011;29527;55.766;37.570;2023-08-12T14:16:01;15.65;;;13.70;;
37791;SDS011;29527;55.766;37.570;2023-08-12T14:18:26;18.80;;;13.40;;
37791;SDS011;29527;55.766;37.570;2023-08-12T14:20:52;15.48;;;13.02;;
37791;SDS011;29527;55.766;37.570;2023-08-12T14:23:17;15.75;;;13.38;;